sensor_id;sensor_type;location;lat;lon;timestamp;temperature;humidity
16289;DHT22;26089;43.538;5.250;2023-02-01T00:02:20;5.50;99.90
16289;DHT22;26089;43.538;5.250;2023-02-01T00:04:48;6.80;99.90
16289;DHT22;26089;43.538;5.250;2023-02-01T00:07:15;6.30;99.90
16289;DHT22;26089;43.538;5.250;2023-02-01T00:09:42;6.20;99.90
16289;DHT22;26089;43.538;5.250;2023-02-01T00:12:09;6.20;99.90
16289;DHT22;26089;43.538;5.250;2023-02-01T00:14:37;6.20;99.90
16289;DHT22;26089;43.538;5.250;2023-02-01T00:17:05;6.20;99.90
16289;DHT22;26089;43.538;5.250;2023-02-01T00:19:33;6.80;99.90
16289;DHT22;26089;43.538;5.250;2023-02-01T00:22:01;6.20;99.90
16289;DHT22;26089;43.538;5.250;2023-02-01T00:24:28;6.30;99.90
16289;DHT22;26089;43.538;5.250;2023-02-01T00:26:55;6.20;99.90
16289;DHT22;26089;43.538;5.250;2023-02-01T00:29:22;6.20;99.90
16289;DHT22;26089;43.538;5.250;2023-02-01T00:31:50;6.10;99.90
16289;DHT22;26089;43.538;5.250;2023-02-01T00:34:18;6.10;99.90
16289;DHT22;26089;43.538;5.250;2023-02-01T00:36:46;6.10;99.90
16289;DHT22;26089;43.538;5.250;2023-02-01T00:39:15;6.00;99.90
16289;DHT22;26089;43.538;5.250;2023-02-01T00:41:42;6.00;99.90
16289;DHT22;26089;43.538;5.250;2023-02-01T00:44:09;5.50;99.90
16289;DHT22;26089;43.538;5.250;2023-02-01T00:46:36;6.00;99.90
16289;DHT22;26089;43.538;5.250;2023-02-01T00:49:03;5.90;99.90
16289;DHT22;26089;43.538;5.250;2023-02-01T00:51:32;5.70;99.90
16289;DHT22;26089;43.538;5.250;2023-02-01T00:53:59;5.70;99.90
16289;DHT22;26089;43.538;5.250;2023-02-01T00:56:28;5.60;99.90
16289;DHT22;26089;43.538;5.250;2023-02-01T00:58:55;5.70;99.90
16289;DHT22;26089;43.538;5.250;2023-02-01T01:01:23;5.10;99.90
16289;DHT22;26089;43.538;5.250;2023-02-01T01:03:52;5.80;99.90
16289;DHT22;26089;43.538;5.250;2023-02-01T01:06:21;5.80;99.90
16289;DHT22;26089;43.538;5.250;2023-02-01T01:08:50;5.70;99.90
16289;DHT22;26089;43.538;5.250;2023-02-01T01:11:19;5.80;99.90
16289;DHT22;26089;43.538;5.250;2023-02-01T01:13:49;5.90;99.90
16289;DHT22;26089;43.538;5.250;2023-02-01T01:16:19;5.90;99.90
16289;DHT22;26089;43.538;5.250;2023-02-01T01:18:46;5.60;99.90
16289;DHT22;26089;43.538;5.250;2023-02-01T01:21:14;5.50;99.90
16289;DHT22;26089;43.538;5.250;2023-02-01T01:23:42;5.20;99.90
16289;DHT22;26089;43.538;5.250;2023-02-01T01:26:13;5.30;99.90
16289;DHT22;26089;43.538;5.250;2023-02-01T01:28:40;5.10;99.90
16289;DHT22;26089;43.538;5.250;2023-02-01T01:31:09;5.10;99.90
16289;DHT22;26089;43.538;5.250;2023-02-01T01:33:37;5.10;99.90
16289;DHT22;26089;43.538;5.250;2023-02-01T01:36:05;4.60;99.90
16289;DHT22;26089;43.538;5.250;2023-02-01T01:38:32;5.00;99.90
16289;DHT22;26089;43.538;5.250;2023-02-01T01:40:59;5.30;99.90
16289;DHT22;26089;43.538;5.250;2023-02-01T01:46:32;4.60;99.90
16289;DHT22;26089;43.538;5.250;2023-02-01T01:49:05;4.50;99.90
16289;DHT22;26089;43.538;5.250;2023-02-01T01:51:37;4.30;99.90
16289;DHT22;26089;43.538;5.250;2023-02-01T01:54:07;4.30;99.90
16289;DHT22;26089;43.538;5.250;2023-02-01T01:56:37;4.30;99.90
16289;DHT22;26089;43.538;5.250;2023-02-01T01:59:05;4.20;99.90
16289;DHT22;26089;43.538;5.250;2023-02-01T02:01:33;5.10;99.90
16289;DHT22;26089;43.538;5.250;2023-02-01T02:04:01;4.10;99.90
16289;DHT22;26089;43.538;5.250;2023-02-01T02:06:36;4.20;99.90
16289;DHT22;26089;43.538;5.250;2023-02-01T02:09:04;4.40;99.90
16289;DHT22;26089;43.538;5.250;2023-02-01T02:11:31;4.00;99.90
16289;DHT22;26089;43.538;5.250;2023-02-01T02:13:58;4.40;99.90
16289;DHT22;26089;43.538;5.250;2023-02-01T02:16:40;3.50;99.90
16289;DHT22;26089;43.538;5.250;2023-02-01T02:22:29;4.00;99.90
16289;DHT22;26089;43.538;5.250;2023-02-01T02:25:36;3.30;99.90
16289;DHT22;26089;43.538;5.250;2023-02-01T02:28:23;3.30;99.90
16289;DHT22;26089;43.538;5.250;2023-02-01T02:31:16;3.00;99.90
16289;DHT22;26089;43.538;5.250;2023-02-01T02:33:54;3.90;99.90
16289;DHT22;26089;43.538;5.250;2023-02-01T02:36:32;2.90;99.90
16289;DHT22;26089;43.538;5.250;2023-02-01T02:39:07;2.90;99.90
16289;DHT22;26089;43.538;5.250;2023-02-01T02:41:42;2.90;99.90
16289;DHT22;26089;43.538;5.250;2023-02-01T02:44:35;3.40;99.90
16289;DHT22;26089;43.538;5.250;2023-02-01T02:47:25;2.30;99.90
16289;DHT22;26089;43.538;5.250;2023-02-01T02:50:05;2.60;99.90
16289;DHT22;26089;43.538;5.250;2023-02-01T02:52:57;2.60;99.90
16289;DHT22;26089;43.538;5.250;2023-02-01T02:55:45;2.30;99.90
16289;DHT22;26089;43.538;5.250;2023-02-01T02:58:13;2.50;99.90
16289;DHT22;26089;43.538;5.250;2023-02-01T03:00:58;2.50;99.90
16289;DHT22;26089;43.538;5.250;2023-02-01T03:03:43;2.50;99.90
16289;DHT22;26089;43.538;5.250;2023-02-01T03:06:36;2.30;99.90
16289;DHT22;26089;43.538;5.250;2023-02-01T03:09:08;2.20;99.90
16289;DHT22;26089;43.538;5.250;2023-02-01T03:11:37;2.20;99.90
16289;DHT22;26089;43.538;5.250;2023-02-01T03:14:25;2.20;99.90
16289;DHT22;26089;43.538;5.250;2023-02-01T03:16:54;2.30;99.90
16289;DHT22;26089;43.538;5.250;2023-02-01T03:19:27;2.30;99.90
16289;DHT22;26089;43.538;5.250;2023-02-01T03:21:59;2.30;99.90
16289;DHT22;26089;43.538;5.250;2023-02-01T03:24:31;1.40;99.90
16289;DHT22;26089;43.538;5.250;2023-02-01T03:27:05;2.10;99.90
16289;DHT22;26089;43.538;5.250;2023-02-01T03:29:37;3.50;99.90
16289;DHT22;26089;43.538;5.250;2023-02-01T03:32:05;3.40;99.90
16289;DHT22;26089;43.538;5.250;2023-02-01T03:34:33;2.70;99.90
16289;DHT22;26089;43.538;5.250;2023-02-01T03:37:04;2.80;99.90
16289;DHT22;26089;43.538;5.250;2023-02-01T03:39:36;2.80;99.90
16289;DHT22;26089;43.538;5.250;2023-02-01T03:42:07;3.00;99.90
16289;DHT22;26089;43.538;5.250;2023-02-01T03:44:40;3.10;99.90
16289;DHT22;26089;43.538;5.250;2023-02-01T03:47:11;3.40;99.90
16289;DHT22;26089;43.538;5.250;2023-02-01T03:49:42;3.50;99.90
16289;DHT22;26089;43.538;5.250;2023-02-01T03:52:14;3.50;99.90
16289;DHT22;26089;43.538;5.250;2023-02-01T03:54:43;3.90;99.90
16289;DHT22;26089;43.538;5.250;2023-02-01T03:57:14;3.30;99.90
16289;DHT22;26089;43.538;5.250;2023-02-01T03:59:45;4.20;99.90
16289;DHT22;26089;43.538;5.250;2023-02-01T04:02:12;3.70;99.90
16289;DHT22;26089;43.538;5.250;2023-02-01T04:04:39;3.70;99.90
16289;DHT22;26089;43.538;5.250;2023-02-01T04:07:06;3.60;99.90
16289;DHT22;26089;43.538;5.250;2023-02-01T04:09:34;3.50;99.90
16289;DHT22;26089;43.538;5.250;2023-02-01T04:12:01;3.70;99.90
16289;DHT22;26089;43.538;5.250;2023-02-01T04:14:28;3.80;99.90
16289;DHT22;26089;43.538;5.250;2023-02-01T04:16:55;4.20;99.90
16289;DHT22;26089;43.538;5.250;2023-02-01T04:19:22;4.00;99.90
16289;DHT22;26089;43.538;5.250;2023-02-01T04:21:49;3.60;99.90
16289;DHT22;26089;43.538;5.250;2023-02-01T04:24:16;4.00;99.90
16289;DHT22;26089;43.538;5.250;2023-02-01T04:26:44;3.90;99.90
16289;DHT22;26089;43.538;5.250;2023-02-01T04:29:11;4.30;99.90
16289;DHT22;26089;43.538;5.250;2023-02-01T04:31:38;3.50;99.90
16289;DHT22;26089;43.538;5.250;2023-02-01T04:34:05;3.30;99.90
16289;DHT22;26089;43.538;5.250;2023-02-01T04:36:32;3.10;99.90
16289;DHT22;26089;43.538;5.250;2023-02-01T04:38:59;2.90;99.90
16289;DHT22;26089;43.538;5.250;2023-02-01T04:41:26;2.50;99.90
16289;DHT22;26089;43.538;5.250;2023-02-01T04:43:55;2.50;99.90
16289;DHT22;26089;43.538;5.250;2023-02-01T04:46:22;2.70;99.90
16289;DHT22;26089;43.538;5.250;2023-02-01T04:48:49;2.60;99.90
16289;DHT22;26089;43.538;5.250;2023-02-01T04:51:16;2.60;99.90
16289;DHT22;26089;43.538;5.250;2023-02-01T04:53:43;2.80;99.90
16289;DHT22;26089;43.538;5.250;2023-02-01T04:56:10;3.00;99.90
16289;DHT22;26089;43.538;5.250;2023-02-01T04:58:37;2.30;99.90
16289;DHT22;26089;43.538;5.250;2023-02-01T05:01:06;2.30;99.90
16289;DHT22;26089;43.538;5.250;2023-02-01T05:03:34;2.20;99.90
16289;DHT22;26089;43.538;5.250;2023-02-01T05:06:01;2.20;99.90
16289;DHT22;26089;43.538;5.250;2023-02-01T05:08:30;3.00;99.90
16289;DHT22;26089;43.538;5.250;2023-02-01T05:10:57;2.80;99.90
16289;DHT22;26089;43.538;5.250;2023-02-01T05:13:28;2.00;99.90
16289;DHT22;26089;43.538;5.250;2023-02-01T05:16:14;1.70;99.90
16289;DHT22;26089;43.538;5.250;2023-02-01T05:18:41;1.90;99.90
16289;DHT22;26089;43.538;5.250;2023-02-01T05:21:08;2.30;99.90
16289;DHT22;26089;43.538;5.250;2023-02-01T05:23:35;2.00;99.90
16289;DHT22;26089;43.538;5.250;2023-02-01T05:26:22;2.00;99.90
16289;DHT22;26089;43.538;5.250;2023-02-01T05:28:50;2.00;99.90
16289;DHT22;26089;43.538;5.250;2023-02-01T05:31:18;2.00;99.90
16289;DHT22;26089;43.538;5.250;2023-02-01T05:33:45;2.10;99.90
16289;DHT22;26089;43.538;5.250;2023-02-01T05:36:12;2.20;99.90
16289;DHT22;26089;43.538;5.250;2023-02-01T05:38:39;2.30;99.90
16289;DHT22;26089;43.538;5.250;2023-02-01T05:41:06;2.40;99.90
16289;DHT22;26089;43.538;5.250;2023-02-01T05:43:33;2.60;99.90
16289;DHT22;26089;43.538;5.250;2023-02-01T05:46:00;2.80;99.90
16289;DHT22;26089;43.538;5.250;2023-02-01T05:48:29;3.20;99.90
16289;DHT22;26089;43.538;5.250;2023-02-01T05:50:56;3.20;99.90
16289;DHT22;26089;43.538;5.250;2023-02-01T05:53:23;3.80;99.90
16289;DHT22;26089;43.538;5.250;2023-02-01T05:55:50;3.30;99.90
16289;DHT22;26089;43.538;5.250;2023-02-01T05:58:17;3.20;99.90
16289;DHT22;26089;43.538;5.250;2023-02-01T06:00:44;4.60;99.90
16289;DHT22;26089;43.538;5.250;2023-02-01T06:03:11;4.30;99.90
16289;DHT22;26089;43.538;5.250;2023-02-01T06:05:39;3.80;99.90
16289;DHT22;26089;43.538;5.250;2023-02-01T06:08:06;3.50;99.90
16289;DHT22;26089;43.538;5.250;2023-02-01T06:10:34;3.60;99.90
16289;DHT22;26089;43.538;5.250;2023-02-01T06:13:01;3.80;99.90
16289;DHT22;26089;43.538;5.250;2023-02-01T06:15:29;4.00;99.90
16289;DHT22;26089;43.538;5.250;2023-02-01T06:17:56;4.30;99.90
16289;DHT22;26089;43.538;5.250;2023-02-01T06:20:23;4.10;99.90
16289;DHT22;26089;43.538;5.250;2023-02-01T06:22:52;4.80;99.90
16289;DHT22;26089;43.538;5.250;2023-02-01T06:25:19;4.90;99.90
16289;DHT22;26089;43.538;5.250;2023-02-01T06:27:46;4.80;99.90
16289;DHT22;26089;43.538;5.250;2023-02-01T06:30:14;4.70;99.90
16289;DHT22;26089;43.538;5.250;2023-02-01T06:32:41;5.10;99.90
16289;DHT22;26089;43.538;5.250;2023-02-01T06:35:09;5.30;99.90
16289;DHT22;26089;43.538;5.250;2023-02-01T06:37:41;5.50;99.90
16289;DHT22;26089;43.538;5.250;2023-02-01T06:40:11;5.50;99.90
16289;DHT22;26089;43.538;5.250;2023-02-01T06:42:38;5.00;99.90
16289;DHT22;26089;43.538;5.250;2023-02-01T06:45:06;5.70;99.90
16289;DHT22;26089;43.538;5.250;2023-02-01T06:47:33;5.10;99.90
16289;DHT22;26089;43.538;5.250;2023-02-01T06:50:00;5.10;99.90
16289;DHT22;26089;43.538;5.250;2023-02-01T06:52:27;4.90;99.90
16289;DHT22;26089;43.538;5.250;2023-02-01T06:54:54;5.20;99.90
16289;DHT22;26089;43.538;5.250;2023-02-01T06:57:22;4.60;99.90
16289;DHT22;26089;43.538;5.250;2023-02-01T06:59:49;5.50;99.90
16289;DHT22;26089;43.538;5.250;2023-02-01T07:02:16;4.40;99.90
16289;DHT22;26089;43.538;5.250;2023-02-01T07:04:43;4.60;99.90
16289;DHT22;26089;43.538;5.250;2023-02-01T07:07:10;4.50;99.90
16289;DHT22;26089;43.538;5.250;2023-02-01T07:09:37;4.20;99.90
16289;DHT22;26089;43.538;5.250;2023-02-01T07:12:05;4.60;99.90
16289;DHT22;26089;43.538;5.250;2023-02-01T07:14:33;5.70;99.90
16289;DHT22;26089;43.538;5.250;2023-02-01T07:17:00;5.50;99.90
16289;DHT22;26089;43.538;5.250;2023-02-01T07:19:27;4.70;99.90
16289;DHT22;26089;43.538;5.250;2023-02-01T07:21:54;5.40;99.90
16289;DHT22;26089;43.538;5.250;2023-02-01T07:24:21;5.40;99.90
16289;DHT22;26089;43.538;5.250;2023-02-01T07:26:48;5.60;99.90
16289;DHT22;26089;43.538;5.250;2023-02-01T07:29:16;5.90;99.90
16289;DHT22;26089;43.538;5.250;2023-02-01T07:31:45;6.10;99.90
16289;DHT22;26089;43.538;5.250;2023-02-01T07:34:12;5.90;99.90
16289;DHT22;26089;43.538;5.250;2023-02-01T07:36:39;5.80;99.90
16289;DHT22;26089;43.538;5.250;2023-02-01T07:39:06;5.80;99.90
16289;DHT22;26089;43.538;5.250;2023-02-01T07:41:33;6.30;99.90
16289;DHT22;26089;43.538;5.250;2023-02-01T07:43:59;5.80;99.90
16289;DHT22;26089;43.538;5.250;2023-02-01T07:46:26;5.90;99.90
16289;DHT22;26089;43.538;5.250;2023-02-01T07:48:55;5.90;99.90
16289;DHT22;26089;43.538;5.250;2023-02-01T07:51:22;6.00;99.90
16289;DHT22;26089;43.538;5.250;2023-02-01T07:53:49;6.10;99.90
16289;DHT22;26089;43.538;5.250;2023-02-01T07:56:17;6.90;99.90
16289;DHT22;26089;43.538;5.250;2023-02-01T07:58:47;6.50;99.90
16289;DHT22;26089;43.538;5.250;2023-02-01T08:01:15;6.80;99.90
16289;DHT22;26089;43.538;5.250;2023-02-01T08:03:50;6.90;99.90
16289;DHT22;26089;43.538;5.250;2023-02-01T08:06:19;7.00;99.90
16289;DHT22;26089;43.538;5.250;2023-02-01T08:08:47;7.40;99.90
16289;DHT22;26089;43.538;5.250;2023-02-01T08:11:14;8.10;99.90
16289;DHT22;26089;43.538;5.250;2023-02-01T08:13:42;7.00;99.90
16289;DHT22;26089;43.538;5.250;2023-02-01T08:16:11;7.10;99.90
16289;DHT22;26089;43.538;5.250;2023-02-01T08:18:39;7.20;99.90
16289;DHT22;26089;43.538;5.250;2023-02-01T08:21:08;7.00;99.90
16289;DHT22;26089;43.538;5.250;2023-02-01T08:23:37;7.70;99.90
16289;DHT22;26089;43.538;5.250;2023-02-01T08:26:10;7.40;99.90
16289;DHT22;26089;43.538;5.250;2023-02-01T08:28:38;7.30;99.90
16289;DHT22;26089;43.538;5.250;2023-02-01T08:31:07;7.30;99.90
16289;DHT22;26089;43.538;5.250;2023-02-01T08:33:35;7.50;99.90
16289;DHT22;26089;43.538;5.250;2023-02-01T08:36:04;7.50;99.90
16289;DHT22;26089;43.538;5.250;2023-02-01T08:38:31;7.60;99.90
16289;DHT22;26089;43.538;5.250;2023-02-01T08:41:04;7.70;99.90
16289;DHT22;26089;43.538;5.250;2023-02-01T08:43:32;7.70;99.90
16289;DHT22;26089;43.538;5.250;2023-02-01T08:45:59;8.20;99.90
16289;DHT22;26089;43.538;5.250;2023-02-01T08:48:26;8.30;99.90
16289;DHT22;26089;43.538;5.250;2023-02-01T08:50:53;8.50;99.90
16289;DHT22;26089;43.538;5.250;2023-02-01T08:53:20;8.80;99.90
16289;DHT22;26089;43.538;5.250;2023-02-01T08:55:47;8.90;99.90
16289;DHT22;26089;43.538;5.250;2023-02-01T08:58:15;9.80;99.90
16289;DHT22;26089;43.538;5.250;2023-02-01T09:00:42;8.80;99.90
16289;DHT22;26089;43.538;5.250;2023-02-01T09:03:10;8.90;99.90
16289;DHT22;26089;43.538;5.250;2023-02-01T09:05:37;8.90;99.90
16289;DHT22;26089;43.538;5.250;2023-02-01T09:08:04;9.00;99.90
16289;DHT22;26089;43.538;5.250;2023-02-01T09:10:32;8.90;99.90
16289;DHT22;26089;43.538;5.250;2023-02-01T09:12:59;9.00;99.90
16289;DHT22;26089;43.538;5.250;2023-02-01T09:15:28;8.90;99.90
16289;DHT22;26089;43.538;5.250;2023-02-01T09:17:55;9.00;99.90
16289;DHT22;26089;43.538;5.250;2023-02-01T09:20:22;9.00;99.90
16289;DHT22;26089;43.538;5.250;2023-02-01T09:22:50;9.10;99.90
16289;DHT22;26089;43.538;5.250;2023-02-01T09:25:17;8.40;99.90
16289;DHT22;26089;43.538;5.250;2023-02-01T09:27:44;9.30;99.90
16289;DHT22;26089;43.538;5.250;2023-02-01T09:30:12;9.00;99.90
16289;DHT22;26089;43.538;5.250;2023-02-01T09:32:40;9.40;99.90
16289;DHT22;26089;43.538;5.250;2023-02-01T09:35:08;10.00;99.90
16289;DHT22;26089;43.538;5.250;2023-02-01T09:37:35;9.70;99.90
16289;DHT22;26089;43.538;5.250;2023-02-01T09:40:03;9.90;99.90
16289;DHT22;26089;43.538;5.250;2023-02-01T09:43:00;9.90;99.90
16289;DHT22;26089;43.538;5.250;2023-02-01T09:45:38;9.90;99.90
16289;DHT22;26089;43.538;5.250;2023-02-01T09:48:12;10.00;99.90
16289;DHT22;26089;43.538;5.250;2023-02-01T09:50:43;9.80;99.90
16289;DHT22;26089;43.538;5.250;2023-02-01T09:53:15;9.80;99.90
16289;DHT22;26089;43.538;5.250;2023-02-01T09:55:46;9.80;99.90
16289;DHT22;26089;43.538;5.250;2023-02-01T09:58:17;9.80;99.90
16289;DHT22;26089;43.538;5.250;2023-02-01T10:00:50;9.80;99.90
16289;DHT22;26089;43.538;5.250;2023-02-01T10:03:20;9.90;99.90
16289;DHT22;26089;43.538;5.250;2023-02-01T10:06:04;10.10;99.90
16289;DHT22;26089;43.538;5.250;2023-02-01T10:08:48;10.00;99.90
16289;DHT22;26089;43.538;5.250;2023-02-01T10:11:25;10.00;99.90
16289;DHT22;26089;43.538;5.250;2023-02-01T10:13:59;10.00;99.90
16289;DHT22;26089;43.538;5.250;2023-02-01T10:16:37;10.10;99.90
16289;DHT22;26089;43.538;5.250;2023-02-01T10:19:36;10.10;99.90
16289;DHT22;26089;43.538;5.250;2023-02-01T10:22:09;10.30;99.90
16289;DHT22;26089;43.538;5.250;2023-02-01T10:24:45;10.50;99.90
16289;DHT22;26089;43.538;5.250;2023-02-01T10:27:17;10.60;99.90
16289;DHT22;26089;43.538;5.250;2023-02-01T10:29:49;10.60;99.90
16289;DHT22;26089;43.538;5.250;2023-02-01T10:32:21;10.70;99.90
16289;DHT22;26089;43.538;5.250;2023-02-01T10:34:55;10.80;99.90
16289;DHT22;26089;43.538;5.250;2023-02-01T10:37:31;10.80;99.90
16289;DHT22;26089;43.538;5.250;2023-02-01T10:40:00;11.00;99.90
16289;DHT22;26089;43.538;5.250;2023-02-01T10:42:31;11.10;99.90
16289;DHT22;26089;43.538;5.250;2023-02-01T10:45:00;11.00;99.90
16289;DHT22;26089;43.538;5.250;2023-02-01T10:47:27;11.10;99.90
16289;DHT22;26089;43.538;5.250;2023-02-01T10:50:02;11.10;99.90
16289;DHT22;26089;43.538;5.250;2023-02-01T10:52:36;11.10;99.90
16289;DHT22;26089;43.538;5.250;2023-02-01T10:55:35;11.20;99.90
16289;DHT22;26089;43.538;5.250;2023-02-01T10:58:04;11.20;99.90
16289;DHT22;26089;43.538;5.250;2023-02-01T11:00:42;11.40;99.90
16289;DHT22;26089;43.538;5.250;2023-02-01T11:06:26;11.50;99.90
16289;DHT22;26089;43.538;5.250;2023-02-01T11:08:54;11.60;99.90
16289;DHT22;26089;43.538;5.250;2023-02-01T11:11:22;11.70;99.90
16289;DHT22;26089;43.538;5.250;2023-02-01T11:13:55;11.70;99.90
16289;DHT22;26089;43.538;5.250;2023-02-01T11:16:29;11.70;99.90
16289;DHT22;26089;43.538;5.250;2023-02-01T11:18:58;11.80;99.90
16289;DHT22;26089;43.538;5.250;2023-02-01T11:21:27;11.90;99.90
16289;DHT22;26089;43.538;5.250;2023-02-01T11:23:54;12.00;99.90
16289;DHT22;26089;43.538;5.250;2023-02-01T11:26:23;12.30;99.90
16289;DHT22;26089;43.538;5.250;2023-02-01T11:28:56;12.30;99.90
16289;DHT22;26089;43.538;5.250;2023-02-01T11:31:24;12.70;99.90
16289;DHT22;26089;43.538;5.250;2023-02-01T11:33:54;12.90;99.90
16289;DHT22;26089;43.538;5.250;2023-02-01T11:36:27;13.40;99.90
16289;DHT22;26089;43.538;5.250;2023-02-01T11:39:08;13.60;99.90
16289;DHT22;26089;43.538;5.250;2023-02-01T11:41:41;14.10;99.90
16289;DHT22;26089;43.538;5.250;2023-02-01T11:44:21;14.60;99.90
16289;DHT22;26089;43.538;5.250;2023-02-01T11:46:49;14.50;99.90
16289;DHT22;26089;43.538;5.250;2023-02-01T11:49:21;14.30;99.90
16289;DHT22;26089;43.538;5.250;2023-02-01T11:52:03;14.10;99.90
16289;DHT22;26089;43.538;5.250;2023-02-01T11:54:45;14.40;99.90
16289;DHT22;26089;43.538;5.250;2023-02-01T11:57:33;14.60;99.90
16289;DHT22;26089;43.538;5.250;2023-02-01T12:00:25;14.70;99.90
16289;DHT22;26089;43.538;5.250;2023-02-01T12:05:53;14.90;99.90
16289;DHT22;26089;43.538;5.250;2023-02-01T12:08:34;15.20;99.90
16289;DHT22;26089;43.538;5.250;2023-02-01T12:11:25;15.10;99.90
16289;DHT22;26089;43.538;5.250;2023-02-01T12:14:01;15.50;99.90
16289;DHT22;26089;43.538;5.250;2023-02-01T12:16:37;15.50;99.90
16289;DHT22;26089;43.538;5.250;2023-02-01T12:19:20;15.80;99.90
16289;DHT22;26089;43.538;5.250;2023-02-01T12:22:03;16.30;99.90
16289;DHT22;26089;43.538;5.250;2023-02-01T12:24:58;15.90;99.90
16289;DHT22;26089;43.538;5.250;2023-02-01T12:28:00;15.70;99.90
16289;DHT22;26089;43.538;5.250;2023-02-01T12:31:06;15.20;99.90
16289;DHT22;26089;43.538;5.250;2023-02-01T12:33:48;15.70;99.90
16289;DHT22;26089;43.538;5.250;2023-02-01T12:36:21;15.80;99.90
16289;DHT22;26089;43.538;5.250;2023-02-01T12:38:59;16.30;99.90
16289;DHT22;26089;43.538;5.250;2023-02-01T12:42:18;16.50;99.90
16289;DHT22;26089;43.538;5.250;2023-02-01T12:45:09;16.10;99.90
16289;DHT22;26089;43.538;5.250;2023-02-01T12:48:08;15.70;99.90
16289;DHT22;26089;43.538;5.250;2023-02-01T12:50:51;15.60;99.90
16289;DHT22;26089;43.538;5.250;2023-02-01T12:53:27;15.60;99.90
16289;DHT22;26089;43.538;5.250;2023-02-01T12:56:01;15.60;99.90
16289;DHT22;26089;43.538;5.250;2023-02-01T12:58:35;16.00;99.90
16289;DHT22;26089;43.538;5.250;2023-02-01T13:01:09;16.20;99.90
16289;DHT22;26089;43.538;5.250;2023-02-01T13:03:41;15.90;99.90
16289;DHT22;26089;43.538;5.250;2023-02-01T13:06:13;15.90;99.90
16289;DHT22;26089;43.538;5.250;2023-02-01T13:08:47;15.70;99.90
16289;DHT22;26089;43.538;5.250;2023-02-01T13:11:19;15.90;99.90
16289;DHT22;26089;43.538;5.250;2023-02-01T13:13:55;15.80;99.90
16289;DHT22;26089;43.538;5.250;2023-02-01T13:16:26;16.20;99.90
16289;DHT22;26089;43.538;5.250;2023-02-01T13:19:00;16.60;99.90
16289;DHT22;26089;43.538;5.250;2023-02-01T13:21:32;16.50;99.90
16289;DHT22;26089;43.538;5.250;2023-02-01T13:24:00;16.00;99.90
16289;DHT22;26089;43.538;5.250;2023-02-01T13:26:27;16.30;99.90
16289;DHT22;26089;43.538;5.250;2023-02-01T13:28:57;16.60;99.90
16289;DHT22;26089;43.538;5.250;2023-02-01T13:37:34;15.40;99.90
16289;DHT22;26089;43.538;5.250;2023-02-01T13:40:25;15.50;99.90
16289;DHT22;26089;43.538;5.250;2023-02-01T13:43:01;15.60;99.90
16289;DHT22;26089;43.538;5.250;2023-02-01T13:45:33;15.80;99.90
16289;DHT22;26089;43.538;5.250;2023-02-01T13:48:04;16.10;99.90
16289;DHT22;26089;43.538;5.250;2023-02-01T13:50:33;16.20;99.90
16289;DHT22;26089;43.538;5.250;2023-02-01T13:53:11;16.10;99.90
16289;DHT22;26089;43.538;5.250;2023-02-01T13:55:41;16.30;99.90
16289;DHT22;26089;43.538;5.250;2023-02-01T13:58:18;15.90;99.90
16289;DHT22;26089;43.538;5.250;2023-02-01T14:00:48;16.20;99.90
16289;DHT22;26089;43.538;5.250;2023-02-01T14:03:19;16.10;99.90
16289;DHT22;26089;43.538;5.250;2023-02-01T14:06:14;16.10;99.90
16289;DHT22;26089;43.538;5.250;2023-02-01T14:11:35;15.40;99.90
16289;DHT22;26089;43.538;5.250;2023-02-01T14:17:40;15.00;99.90
16289;DHT22;26089;43.538;5.250;2023-02-01T14:23:26;14.80;99.90
16289;DHT22;26089;43.538;5.250;2023-02-01T14:26:20;14.60;99.90
16289;DHT22;26089;43.538;5.250;2023-02-01T14:29:01;15.00;99.90
16289;DHT22;26089;43.538;5.250;2023-02-01T14:31:52;14.70;99.90
16289;DHT22;26089;43.538;5.250;2023-02-01T14:34:30;14.50;99.90
16289;DHT22;26089;43.538;5.250;2023-02-01T14:37:00;14.30;99.90
16289;DHT22;26089;43.538;5.250;2023-02-01T14:39:50;13.90;99.90
16289;DHT22;26089;43.538;5.250;2023-02-01T14:42:23;13.90;99.90
16289;DHT22;26089;43.538;5.250;2023-02-01T14:44:51;14.00;99.90
16289;DHT22;26089;43.538;5.250;2023-02-01T14:47:33;13.50;99.90
16289;DHT22;26089;43.538;5.250;2023-02-01T14:53:06;13.30;99.90
16289;DHT22;26089;43.538;5.250;2023-02-01T14:55:40;13.10;99.90
16289;DHT22;26089;43.538;5.250;2023-02-01T14:58:16;12.90;99.90
16289;DHT22;26089;43.538;5.250;2023-02-01T15:00:51;12.80;99.90
16289;DHT22;26089;43.538;5.250;2023-02-01T15:03:42;12.90;99.90
16289;DHT22;26089;43.538;5.250;2023-02-01T15:06:27;13.00;99.90
16289;DHT22;26089;43.538;5.250;2023-02-01T15:08:58;12.80;99.90
16289;DHT22;26089;43.538;5.250;2023-02-01T15:11:26;12.70;99.90
16289;DHT22;26089;43.538;5.250;2023-02-01T15:13:53;12.60;99.90
16289;DHT22;26089;43.538;5.250;2023-02-01T15:16:23;12.60;99.90
16289;DHT22;26089;43.538;5.250;2023-02-01T15:19:06;12.60;99.90
16289;DHT22;26089;43.538;5.250;2023-02-01T15:21:42;12.40;99.90
16289;DHT22;26089;43.538;5.250;2023-02-01T15:24:11;12.40;99.90
16289;DHT22;26089;43.538;5.250;2023-02-01T15:26:38;12.30;99.90
16289;DHT22;26089;43.538;5.250;2023-02-01T15:29:08;12.20;99.90
16289;DHT22;26089;43.538;5.250;2023-02-01T15:31:38;12.10;99.90
16289;DHT22;26089;43.538;5.250;2023-02-01T15:34:06;12.10;99.90
16289;DHT22;26089;43.538;5.250;2023-02-01T15:36:35;12.00;99.90
16289;DHT22;26089;43.538;5.250;2023-02-01T15:39:18;12.00;99.90
16289;DHT22;26089;43.538;5.250;2023-02-01T15:41:50;11.90;99.90
16289;DHT22;26089;43.538;5.250;2023-02-01T15:44:21;11.80;99.90
16289;DHT22;26089;43.538;5.250;2023-02-01T15:46:54;11.70;99.90
16289;DHT22;26089;43.538;5.250;2023-02-01T15:49:26;11.60;99.90
16289;DHT22;26089;43.538;5.250;2023-02-01T15:51:56;11.50;99.90
16289;DHT22;26089;43.538;5.250;2023-02-01T15:54:27;11.50;99.90
16289;DHT22;26089;43.538;5.250;2023-02-01T15:56:59;11.50;99.90
16289;DHT22;26089;43.538;5.250;2023-02-01T15:59:31;11.40;99.90
16289;DHT22;26089;43.538;5.250;2023-02-01T16:01:59;11.40;99.90
16289;DHT22;26089;43.538;5.250;2023-02-01T16:04:28;11.30;99.90
16289;DHT22;26089;43.538;5.250;2023-02-01T16:06:59;11.30;99.90
16289;DHT22;26089;43.538;5.250;2023-02-01T16:09:37;11.20;99.90
16289;DHT22;26089;43.538;5.250;2023-02-01T16:12:29;11.10;99.90
16289;DHT22;26089;43.538;5.250;2023-02-01T16:14:57;11.00;99.90
16289;DHT22;26089;43.538;5.250;2023-02-01T16:17:24;11.00;99.90
16289;DHT22;26089;43.538;5.250;2023-02-01T16:19:51;10.90;99.90
16289;DHT22;26089;43.538;5.250;2023-02-01T16:22:19;10.80;99.90
16289;DHT22;26089;43.538;5.250;2023-02-01T16:24:46;10.70;99.90
16289;DHT22;26089;43.538;5.250;2023-02-01T16:27:13;10.70;99.90
16289;DHT22;26089;43.538;5.250;2023-02-01T16:29:40;10.70;99.90
16289;DHT22;26089;43.538;5.250;2023-02-01T16:32:15;10.60;99.90
16289;DHT22;26089;43.538;5.250;2023-02-01T16:34:43;10.60;99.90
16289;DHT22;26089;43.538;5.250;2023-02-01T16:37:12;10.60;99.90
16289;DHT22;26089;43.538;5.250;2023-02-01T16:39:41;10.30;99.90
16289;DHT22;26089;43.538;5.250;2023-02-01T16:42:10;10.50;99.90